createdAt,value
2022-10-03T00:03:23.879Z,96787.69
2022-10-03T00:08:43.309Z,96804.00
2022-10-03T00:13:55.622Z,96799.66
2022-10-03T00:19:07.389Z,96799.97
2022-10-03T00:24:24.442Z,96807.16
2022-10-03T00:30:16.193Z,96806.16
2022-10-03T00:35:36.455Z,96807.47
2022-10-03T00:41:31.670Z,96797.56
2022-10-03T00:46:58.658Z,96799.50
2022-10-03T00:52:20.521Z,96805.41
2022-10-03T00:57:36.618Z,96810.75
2022-10-03T01:02:50.878Z,96809.22
2022-10-03T01:08:16.901Z,96815.66
2022-10-03T01:13:32.637Z,96805.09
2022-10-03T01:18:50.334Z,96807.97
2022-10-03T01:24:34.702Z,96806.81
2022-10-03T01:30:14.771Z,96804.03
2022-10-03T01:35:27.503Z,96814.00
2022-10-03T01:40:36.210Z,96818.94
2022-10-03T01:45:49.902Z,96797.28
2022-10-03T01:51:02.676Z,96802.81
2022-10-03T01:56:13.837Z,96796.25
2022-10-03T02:01:28.031Z,96802.19
2022-10-03T02:06:43.026Z,96802.25
2022-10-03T02:12:09.689Z,96801.50
2022-10-03T02:17:24.091Z,96804.22
2022-10-03T02:22:33.430Z,96801.50
2022-10-03T02:27:59.043Z,96805.28
2022-10-03T02:33:39.465Z,96811.09
2022-10-03T02:39:08.830Z,96811.09
2022-10-03T02:44:36.043Z,96810.66
2022-10-03T02:50:07.410Z,96814.38
2022-10-03T02:55:37.356Z,96811.34
2022-10-03T03:01:20.782Z,96807.25
2022-10-03T03:06:52.784Z,96807.09
2022-10-03T03:12:47.745Z,96803.09
2022-10-03T03:18:00.754Z,96809.44
2022-10-03T03:23:31.263Z,96802.81
2022-10-03T03:28:44.810Z,96795.66
2022-10-03T03:33:59.330Z,96789.34
2022-10-03T03:39:15.298Z,96784.25
2022-10-03T03:44:32.318Z,96782.47
2022-10-03T03:49:53.263Z,96785.75
2022-10-03T03:55:08.518Z,96777.66
2022-10-03T04:00:17.495Z,96779.81
2022-10-03T04:05:35.362Z,96776.88
2022-10-03T04:10:47.891Z,96772.09
2022-10-03T04:16:06.485Z,96768.34
2022-10-03T04:21:38.157Z,96759.53
2022-10-03T04:27:04.146Z,96758.84
2022-10-03T04:32:23.521Z,96751.56
2022-10-03T04:37:40.677Z,96758.34
2022-10-03T04:42:56.195Z,96753.66
2022-10-03T04:48:11.049Z,96743.78
2022-10-03T04:53:25.039Z,96742.41
2022-10-03T04:58:37.569Z,96733.03
2022-10-03T05:03:48.566Z,96717.91
2022-10-03T05:09:00.614Z,96725.34
2022-10-03T05:14:11.674Z,96721.22
2022-10-03T05:19:42.822Z,96731.28
2022-10-03T05:24:56.149Z,96737.72
2022-10-03T05:30:03.119Z,96733.63
2022-10-03T05:35:30.341Z,96723.16
2022-10-03T05:40:36.722Z,96723.31
2022-10-03T05:45:50.472Z,96738.28
2022-10-03T05:51:32.189Z,96730.72
2022-10-03T05:56:50.699Z,96738.56
2022-10-03T06:02:11.584Z,96731.41
2022-10-03T06:07:26.525Z,96740.50
2022-10-03T06:12:36.337Z,96746.56
2022-10-03T06:17:59.120Z,96752.03
2022-10-03T06:23:40.790Z,96761.41
2022-10-03T06:29:12.775Z,96767.19
2022-10-03T06:34:48.752Z,96771.47
2022-10-03T06:40:31.552Z,96777.63
2022-10-03T06:45:56.808Z,96775.44
2022-10-03T06:51:11.545Z,96792.38
2022-10-03T06:56:59.063Z,96790.03
2022-10-03T07:02:52.781Z,96797.63
2022-10-03T07:08:29.960Z,96792.53
2022-10-03T07:14:14.836Z,96801.59
2022-10-03T07:19:52.011Z,96799.41
2022-10-03T07:25:26.410Z,96801.28
2022-10-03T07:30:48.592Z,96805.41
2022-10-03T07:36:41.189Z,96808.94
2022-10-03T07:41:57.927Z,96814.13
2022-10-03T07:47:34.722Z,96807.22
2022-10-03T07:52:54.880Z,96816.41
2022-10-03T07:58:21.681Z,96821.69
2022-10-03T08:03:56.831Z,96823.81
2022-10-03T08:09:35.116Z,96830.50
2022-10-03T08:14:52.094Z,96819.69
2022-10-03T08:20:23.192Z,96825.25
2022-10-03T08:25:39.761Z,96828.31
2022-10-03T08:31:09.496Z,96830.03
2022-10-03T08:36:45.476Z,96832.16
2022-10-03T08:42:43.667Z,96837.53
2022-10-03T08:48:28.303Z,96833.06
2022-10-03T08:54:07.496Z,96827.91
2022-10-03T08:59:57.995Z,96834.25
2022-10-03T09:05:35.543Z,96829.56
2022-10-03T09:11:16.543Z,96826.84
2022-10-03T09:16:39.773Z,96814.91
2022-10-03T09:22:12.652Z,96811.03
2022-10-03T09:27:54.141Z,96805.31
2022-10-03T09:33:34.554Z,96811.09
2022-10-03T09:39:04.070Z,96801.78
2022-10-03T09:44:33.648Z,96797.84
2022-10-03T09:50:07.281Z,96803.13
2022-10-03T09:55:38.173Z,96787.34
2022-10-03T10:01:04.113Z,96779.44
2022-10-03T10:06:34.446Z,96777.75
2022-10-03T10:12:05.457Z,96779.06
2022-10-03T10:17:45.075Z,96775.44
2022-10-03T10:23:17.165Z,96778.06
2022-10-03T10:28:52.741Z,96765.50
2022-10-03T10:34:46.585Z,96773.38
2022-10-03T10:40:22.489Z,96777.78
2022-10-03T10:45:40.301Z,96770.34
2022-10-03T10:51:17.515Z,96767.69
2022-10-03T10:57:07.841Z,96767.53
2022-10-03T11:02:45.049Z,96762.91
2022-10-03T11:08:23.323Z,96765.00
2022-10-03T11:14:03.018Z,96764.06
2022-10-03T11:20:02.370Z,96758.19
2022-10-03T11:25:40.487Z,96762.41
2022-10-03T11:31:41.356Z,96755.81
2022-10-03T11:37:18.909Z,96761.13
2022-10-03T11:42:32.921Z,96759.50
2022-10-03T11:47:46.893Z,96763.59
2022-10-03T11:53:11.777Z,96757.38
2022-10-03T11:58:34.100Z,96753.25
2022-10-03T12:03:45.501Z,96753.81
2022-10-03T12:09:03.923Z,96753.16
2022-10-03T12:14:25.871Z,96753.16
2022-10-03T12:19:34.093Z,96756.78
2022-10-03T12:24:42.076Z,96753.16
2022-10-03T12:29:54.936Z,96750.63
2022-10-03T12:35:14.542Z,96760.00
2022-10-03T12:40:22.497Z,96747.16
2022-10-03T12:45:35.920Z,96751.91
2022-10-03T12:50:48.497Z,96740.56
2022-10-03T12:56:06.328Z,96748.47
2022-10-03T13:01:18.001Z,96742.97
2022-10-03T13:07:03.192Z,96733.91
2022-10-03T13:12:16.648Z,96725.34
2022-10-03T13:17:29.091Z,96726.97
2022-10-03T13:22:43.569Z,96742.00
2022-10-03T13:27:52.146Z,96733.56
2022-10-03T13:33:01.289Z,96728.28
2022-10-03T13:38:47.001Z,96739.81
2022-10-03T13:43:57.102Z,96728.16
2022-10-03T13:49:10.837Z,96733.66
2022-10-03T13:54:21.559Z,96718.66
2022-10-03T13:59:53.346Z,96717.19
2022-10-03T14:05:09.325Z,96722.75
2022-10-03T14:10:26.358Z,96722.13
2022-10-03T14:15:38.055Z,96706.63
2022-10-03T14:21:20.905Z,96709.63
2022-10-03T14:26:31.406Z,96705.47
2022-10-03T14:31:40.040Z,96697.34
2022-10-03T14:36:48.332Z,96699.19
2022-10-03T14:42:16.582Z,96689.44
2022-10-03T14:47:21.814Z,96694.53
2022-10-03T14:52:35.411Z,96686.50
2022-10-03T14:58:05.889Z,96686.31
2022-10-03T15:03:33.667Z,96684.06
2022-10-03T15:08:42.855Z,96687.06
2022-10-03T15:13:51.190Z,96685.66
2022-10-03T15:18:57.571Z,96687.44
2022-10-03T15:24:06.330Z,96678.25
2022-10-03T15:29:17.326Z,96671.38
2022-10-03T15:34:25.045Z,96674.59
2022-10-03T15:39:35.304Z,96677.88
2022-10-03T15:44:40.261Z,96667.97
2022-10-03T15:49:50.825Z,96662.03
2022-10-03T15:55:14.063Z,96657.56
2022-10-03T16:00:27.566Z,96663.88
2022-10-03T16:05:31.111Z,96667.03
2022-10-03T16:10:39.642Z,96666.09
2022-10-03T16:16:01.282Z,96668.00
2022-10-03T16:21:05.195Z,96666.59
2022-10-03T16:26:16.687Z,96660.75
2022-10-03T16:31:23.789Z,96656.16
2022-10-03T16:36:27.268Z,96654.81
2022-10-03T16:41:34.434Z,96661.69
2022-10-03T16:46:40.580Z,96661.75
2022-10-03T16:51:46.819Z,96660.84
2022-10-03T16:56:56.951Z,96668.47
2022-10-03T17:02:05.741Z,96668.63
2022-10-03T17:07:16.299Z,96675.09
2022-10-03T17:12:26.745Z,96673.13
2022-10-03T17:17:33.818Z,96673.97
2022-10-03T17:22:42.351Z,96668.72
2022-10-03T17:27:50.719Z,96669.53
2022-10-03T17:32:56.566Z,96669.72
2022-10-03T17:38:44.567Z,96669.88
2022-10-03T17:43:46.602Z,96669.53
2022-10-03T17:48:57.374Z,96674.31
2022-10-03T17:54:04.265Z,96676.78
2022-10-03T17:59:15.967Z,96674.81
2022-10-03T18:04:21.182Z,96680.56
2022-10-03T18:09:40.590Z,96675.63
2022-10-03T18:14:55.823Z,96686.31
2022-10-03T18:20:19.862Z,96688.78
2022-10-03T18:26:15.098Z,96686.16
2022-10-03T18:31:18.206Z,96692.72
2022-10-03T18:36:26.954Z,96698.81
2022-10-03T18:41:29.710Z,96704.06
2022-10-03T18:46:40.816Z,96699.78
2022-10-03T18:51:46.529Z,96703.56
2022-10-03T18:57:03.536Z,96694.19
2022-10-03T19:02:20.094Z,96695.19
2022-10-03T19:07:25.057Z,96693.53
2022-10-03T19:12:29.745Z,96690.91
2022-10-03T19:17:40.300Z,96695.97
2022-10-03T19:22:49.418Z,96700.09
2022-10-03T19:27:56.294Z,96699.47
2022-10-03T19:33:06.601Z,96699.44
2022-10-03T19:38:17.017Z,96706.66
2022-10-03T19:43:43.064Z,96707.81
2022-10-03T19:48:52.413Z,96707.81
2022-10-03T19:53:57.633Z,96709.28
2022-10-03T19:59:04.285Z,96706.31
2022-10-03T20:04:08.870Z,96707.13
2022-10-03T20:09:24.221Z,96709.94
2022-10-03T20:14:32.898Z,96704.34
2022-10-03T20:19:54.302Z,96705.84
2022-10-03T20:24:57.589Z,96697.78
2022-10-03T20:30:08.370Z,96698.56
2022-10-03T20:35:16.133Z,96692.50
2022-10-03T20:40:35.799Z,96684.59
2022-10-03T20:45:40.077Z,96687.22
2022-10-03T20:50:46.786Z,96684.91
2022-10-03T20:55:53.683Z,96690.78
2022-10-03T21:01:02.225Z,96683.59
2022-10-03T21:06:19.314Z,96684.59
2022-10-03T21:11:25.204Z,96687.56
2022-10-03T21:16:31.432Z,96687.25
2022-10-03T21:21:42.855Z,96692.66
2022-10-03T21:26:49.053Z,96693.81
2022-10-03T21:32:07.973Z,96698.06
2022-10-03T21:37:18.712Z,96696.44
2022-10-03T21:42:28.153Z,96697.75
2022-10-03T21:47:40.134Z,96698.72
2022-10-03T21:53:03.557Z,96700.38
2022-10-03T21:58:20.368Z,96695.75
2022-10-03T22:03:27.350Z,96694.78
2022-10-03T22:08:35.227Z,96694.28
2022-10-03T22:13:40.814Z,96702.34
2022-10-03T22:19:14.217Z,96698.22
2022-10-03T22:24:26.787Z,96700.00
2022-10-03T22:29:36.941Z,96692.75
2022-10-03T22:34:48.935Z,96700.94
2022-10-03T22:39:53.248Z,96695.53
2022-10-03T22:44:57.094Z,96696.66
2022-10-03T22:50:04.484Z,96690.59
2022-10-03T22:55:13.414Z,96689.78
2022-10-03T23:00:18.631Z,96686.50
2022-10-03T23:05:31.658Z,96675.31
2022-10-03T23:10:48.765Z,96670.69
2022-10-03T23:15:58.523Z,96681.38
2022-10-03T23:21:07.383Z,96677.91
2022-10-03T23:26:49.793Z,96677.22
2022-10-03T23:31:55.889Z,96677.22
2022-10-03T23:37:03.389Z,96671.97
2022-10-03T23:42:11.550Z,96663.94
2022-10-03T23:47:18.049Z,96664.78
2022-10-03T23:52:25.602Z,96663.13
2022-10-03T23:57:35.082Z,96659.53
